Time;durP1;ratioP1;P1;durP2;ratioP2;P2;SDS_P1;SDS_P2;PMS_P1;PMS_P2;Temp;Humidity;BMP_temperature;BMP_pressure;BME280_temperature;BME280_humidity;BME280_pressure;Samples;Min_cycle;Max_cycle;Signal;HPM_P1;HPM_P2
2022/04/10 00:00:45;;;;;;;4.20;3.33;;;;;;;2.28;95.52;100248.22;4984314;28;20265;-60
2022/04/10 00:03:11;;;;;;;4.23;3.00;;;;;;;2.34;94.69;100242.19;5001625;28;20179;-59
2022/04/10 00:05:36;;;;;;;5.83;3.17;;;;;;;2.29;95.36;100241.44;4992377;28;20231;-59
2022/04/10 00:08:02;;;;;;;3.77;3.00;;;;;;;2.24;95.18;100249.13;4992555;28;20632;-60
2022/04/10 00:10:27;;;;;;;3.93;3.20;;;;;;;2.37;94.46;100250.59;4984132;28;20289;-60
2022/04/10 00:12:53;;;;;;;5.17;3.67;;;;;;;2.20;94.47;100261.03;5003803;28;20199;-62
2022/04/10 00:15:18;;;;;;;6.70;3.57;;;;;;;2.03;95.75;100257.97;4992125;28;20183;-57
2022/04/10 00:17:44;;;;;;;3.63;3.23;;;;;;;2.11;96.27;100261.22;4992213;28;20171;-57
2022/04/10 00:20:11;;;;;;;7.03;3.47;;;;;;;2.02;96.85;100252.06;4982869;28;20180;-58
2022/04/10 00:22:48;;;;;;;4.57;3.37;;;;;;;2.04;96.47;100257.94;5000921;28;20179;-59
2022/04/10 00:25:18;;;;;;;4.77;3.77;;;;;;;2.04;96.42;100269.78;4993826;28;20210;-59
2022/04/10 00:27:44;;;;;;;5.60;3.27;;;;;;;2.09;96.42;100262.94;4998989;28;20294;-58
2022/04/10 00:30:12;;;;;;;5.83;3.90;;;;;;;2.03;96.57;100261.31;4988609;28;20171;-58
2022/04/10 00:32:38;;;;;;;3.77;3.20;;;;;;;2.07;96.58;100270.59;4997626;28;20183;-58
2022/04/10 00:35:05;;;;;;;4.30;3.80;;;;;;;1.98;96.44;100259.75;4998211;28;20567;-59
2022/04/10 00:37:31;;;;;;;3.90;3.50;;;;;;;1.88;96.90;100262.41;5013573;28;20183;-58
2022/04/10 00:39:57;;;;;;;6.70;3.50;;;;;;;1.99;96.77;100266.50;5013315;28;20183;-59
2022/04/10 00:42:22;;;;;;;4.10;3.67;;;;;;;2.06;95.95;100265.50;4987648;28;20233;-60
2022/04/10 00:44:47;;;;;;;7.00;3.70;;;;;;;2.00;95.60;100270.69;4997916;28;20222;-59
2022/04/10 00:47:13;;;;;;;3.93;3.60;;;;;;;1.94;95.30;100269.09;4998492;28;20167;-59
2022/04/10 00:49:39;;;;;;;4.03;3.47;;;;;;;1.92;95.99;100270.81;4998571;28;20203;-59
2022/04/10 00:52:07;;;;;;;5.37;3.40;;;;;;;2.01;95.49;100268.16;4986984;28;20249;-58
2022/04/10 00:54:33;;;;;;;5.50;3.73;;;;;;;1.77;95.96;100275.28;4996460;28;20662;-59
2022/04/10 00:57:00;;;;;;;4.23;3.27;;;;;;;1.80;96.85;100276.09;4997181;28;20179;-57
2022/04/10 00:59:26;;;;;;;3.70;3.40;;;;;;;1.84;96.58;100277.72;4997170;28;20221;-57
2022/04/10 01:01:52;;;;;;;4.80;3.87;;;;;;;1.76;97.19;100281.22;4989769;28;20234;-59
2022/04/10 01:04:17;;;;;;;6.43;4.30;;;;;;;1.81;97.87;100278.63;4999215;28;20569;-59
2022/04/10 01:06:46;;;;;;;5.73;4.30;;;;;;;1.77;98.75;100287.13;4998320;28;20182;-57
2022/04/10 01:09:12;;;;;;;3.77;3.47;;;;;;;1.81;98.91;100281.16;4996864;28;20225;-59
2022/04/10 01:11:37;;;;;;;6.70;4.07;;;;;;;1.76;99.06;100288.81;5000357;28;20279;-59
2022/04/10 01:14:04;;;;;;;4.63;3.67;;;;;;;1.77;98.86;100287.97;5000803;28;20294;-60
2022/04/10 01:16:31;;;;;;;6.50;4.07;;;;;;;1.74;98.83;100277.03;4998338;28;20722;-58
2022/04/10 01:18:57;;;;;;;4.57;3.70;;;;;;;1.78;98.74;100286.25;5013228;28;20187;-58
2022/04/10 01:21:26;;;;;;;4.37;3.80;;;;;;;1.71;99.65;100292.28;4990221;28;20336;-58
2022/04/10 01:23:56;;;;;;;4.40;3.93;;;;;;;1.55;100.00;100289.13;4971558;28;20214;-58
2022/04/10 01:26:23;;;;;;;6.17;4.27;;;;;;;1.58;100.00;100284.03;4977376;28;20208;-59
2022/04/10 01:29:08;;;;;;;5.30;4.73;;;;;;;1.50;100.00;100285.81;4977484;28;20278;-58
2022/04/10 01:31:36;;;;;;;4.80;4.00;;;;;;;1.53;100.00;100290.88;4980462;28;20283;-58
2022/04/10 01:34:05;;;;;;;5.87;4.07;;;;;;;1.52;100.00;100286.66;4976485;28;20554;-59
2022/04/10 01:36:32;;;;;;;4.50;4.10;;;;;;;1.39;100.00;100296.97;4974508;28;20224;-58
2022/04/10 01:38:59;;;;;;;8.47;4.07;;;;;;;1.36;100.00;100299.53;4974396;28;20258;-59
2022/04/10 01:41:26;;;;;;;8.77;4.70;;;;;;;1.41;100.00;100297.75;4983734;28;20602;-58
2022/04/10 01:43:52;;;;;;;5.50;4.07;;;;;;;1.42;100.00;100299.44;4998296;28;20242;-58
2022/04/10 01:46:18;;;;;;;5.30;4.80;;;;;;;1.45;100.00;100296.03;4994839;28;20197;-59
2022/04/10 01:48:44;;;;;;;6.37;4.20;;;;;;;1.36;100.00;100293.63;4984019;28;20192;-59
2022/04/10 01:51:10;;;;;;;5.00;4.43;;;;;;;1.31;100.00;100285.25;4967182;28;20289;-58
2022/04/10 01:53:36;;;;;;;5.80;4.53;;;;;;;1.28;100.00;100286.13;4985988;28;20199;-59
2022/04/10 01:56:03;;;;;;;5.33;4.43;;;;;;;1.35;100.00;100286.88;4993123;28;20605;-60
2022/04/10 01:58:29;;;;;;;7.03;5.10;;;;;;;1.38;100.00;100302.88;4993368;28;20277;-59
2022/04/10 02:00:54;;;;;;;4.33;3.90;;;;;;;1.33;100.00;100297.03;4986290;28;20226;-58
2022/04/10 02:03:20;;;;;;;7.17;5.10;;;;;;;1.28;100.00;100302.16;5002509;28;20650;-59
2022/04/10 02:05:45;;;;;;;9.90;4.83;;;;;;;1.25;100.00;100301.38;4993240;28;20626;-59
2022/04/10 02:08:10;;;;;;;5.43;4.53;;;;;;;1.21;100.00;100300.56;4994307;28;20189;-58
2022/04/10 02:10:36;;;;;;;6.67;4.50;;;;;;;1.18;100.00;100299.75;4988768;28;20641;-58
2022/04/10 02:13:01;;;;;;;5.43;4.53;;;;;;;1.12;100.00;100308.28;5004796;28;20194;-58
2022/04/10 02:15:26;;;;;;;6.43;4.67;;;;;;;1.09;100.00;100304.09;4993947;28;20182;-59
2022/04/10 02:17:52;;;;;;;6.17;4.77;;;;;;;1.23;100.00;100305.63;4994059;28;20226;-59
2022/04/10 02:20:17;;;;;;;5.63;5.00;;;;;;;1.17;100.00;100304.00;4986353;28;20218;-58
2022/04/10 02:22:43;;;;;;;8.70;4.77;;;;;;;1.11;100.00;100297.28;4987383;28;20182;-58
2022/04/10 02:25:08;;;;;;;5.83;4.00;;;;;;;1.12;100.00;100293.91;4993574;28;20662;-58
2022/04/10 02:27:34;;;;;;;7.33;4.50;;;;;;;1.13;100.00;100307.44;4993754;28;20214;-58
2022/04/10 02:29:59;;;;;;;6.83;5.30;;;;;;;1.10;100.00;100303.25;4991964;28;20647;-57
2022/04/10 02:32:24;;;;;;;5.77;4.83;;;;;;;1.07;100.00;100294.84;4984952;28;20272;-58
2022/04/10 02:34:50;;;;;;;8.23;4.87;;;;;;;1.06;100.00;100301.59;4993506;28;20671;-57
2022/04/10 02:37:15;;;;;;;6.23;5.47;;;;;;;0.96;100.00;100303.38;4992210;28;20179;-58
2022/04/10 02:39:40;;;;;;;6.33;4.50;;;;;;;1.03;100.00;100305.84;4993913;28;20544;-57
2022/04/10 02:42:06;;;;;;;6.07;4.90;;;;;;;0.85;100.00;100301.84;4998933;28;20296;-57
2022/04/10 02:44:31;;;;;;;6.73;4.87;;;;;;;0.83;100.00;100304.38;4993353;28;20748;-58
2022/04/10 02:46:56;;;;;;;6.17;4.90;;;;;;;0.95;100.00;100303.41;4992135;28;20198;-59
2022/04/10 02:49:22;;;;;;;6.33;4.67;;;;;;;0.96;100.00;100302.56;4979397;28;20594;-58
2022/04/10 02:51:49;;;;;;;7.20;5.13;;;;;;;0.89;100.00;100300.94;4963327;28;20234;-59
2022/04/10 02:54:15;;;;;;;7.97;5.57;;;;;;;0.85;100.00;100300.16;4973982;28;20172;-58
2022/04/10 02:56:41;;;;;;;6.07;4.47;;;;;;;0.89;100.00;100311.09;4972928;28;20191;-57
2022/04/10 02:59:06;;;;;;;6.30;4.50;;;;;;;0.91;100.00;100301.78;4972906;28;20184;-57
2022/04/10 03:01:31;;;;;;;6.77;4.53;;;;;;;0.90;100.00;100305.16;4976774;28;20288;-58
2022/04/10 03:03:56;;;;;;;5.53;4.77;;;;;;;0.89;100.00;100309.38;4996903;28;20230;-59
2022/04/10 03:06:22;;;;;;;4.93;4.53;;;;;;;0.87;100.00;100310.25;4993554;28;20670;-59
2022/04/10 03:08:47;;;;;;;6.97;4.97;;;;;;;0.88;100.00;100317.84;4993418;28;20707;-59
2022/04/10 03:11:12;;;;;;;5.10;4.50;;;;;;;0.84;100.00;100320.44;4985325;28;20721;-58
2022/04/10 03:13:37;;;;;;;5.53;4.67;;;;;;;0.89;100.00;100324.56;4999054;28;20179;-58
2022/04/10 03:16:03;;;;;;;5.63;4.83;;;;;;;0.83;100.00;100321.28;4990595;28;20371;-59
2022/04/10 03:18:28;;;;;;;7.33;4.40;;;;;;;0.80;100.00;100319.63;4991744;28;20642;-57
2022/04/10 03:20:54;;;;;;;4.80;4.27;;;;;;;0.81;100.00;100318.78;4989672;28;20222;-58
2022/04/10 03:23:19;;;;;;;4.80;4.20;;;;;;;0.82;100.00;100320.47;4996017;28;20553;-57
2022/04/10 03:25:44;;;;;;;5.10;3.97;;;;;;;0.82;100.00;100330.59;4992904;28;20217;-58
2022/04/10 03:28:10;;;;;;;6.37;4.47;;;;;;;0.85;100.00;100327.19;4992761;28;20176;-57
2022/04/10 03:30:35;;;;;;;7.47;4.50;;;;;;;0.94;100.00;100334.66;4958398;28;20227;-57
2022/04/10 03:33:00;;;;;;;5.27;4.77;;;;;;;0.83;100.00;100329.72;4980335;28;20179;-57
2022/04/10 03:35:25;;;;;;;6.07;4.70;;;;;;;0.84;100.00;100323.78;5006735;28;20677;-56
2022/04/10 03:37:51;;;;;;;6.77;3.90;;;;;;;0.88;100.00;100333.06;4992670;28;20194;-57
2022/04/10 03:40:16;;;;;;;6.60;4.30;;;;;;;0.92;100.00;100333.88;4984507;28;20686;-57
2022/04/10 03:42:42;;;;;;;7.40;3.93;;;;;;;0.87;100.00;100333.03;5005989;28;20631;-59
2022/04/10 03:45:09;;;;;;;8.57;4.40;;;;;;;0.89;100.00;100334.72;4992149;28;20233;-60
2022/04/10 03:47:35;;;;;;;5.93;3.97;;;;;;;1.05;99.33;100337.09;4991178;28;20193;-57
2022/04/10 03:50:00;;;;;;;8.30;4.47;;;;;;;0.95;99.50;100334.63;4991125;28;20170;-57
2022/04/10 03:52:25;;;;;;;5.37;4.07;;;;;;;0.85;99.77;100342.38;4993385;28;20268;-58
2022/04/10 03:54:51;;;;;;;5.93;4.20;;;;;;;0.96;99.84;100350.69;4992126;28;20569;-58
2022/04/10 03:57:16;;;;;;;6.73;3.90;;;;;;;0.86;99.24;100351.66;4992602;28;20197;-58
2022/04/10 03:59:41;;;;;;;4.10;3.70;;;;;;;0.83;99.49;100354.22;4991847;28;20545;-58
2022/04/10 04:02:06;;;;;;;5.40;4.03;;;;;;;0.87;99.38;100359.22;4997592;28;20234;-57
2022/04/10 04:04:32;;;;;;;6.63;4.40;;;;;;;0.81;99.96;100356.75;4991802;28;20333;-61
2022/04/10 04:06:58;;;;;;;6.57;4.53;;;;;;;0.79;100.00;100354.25;4992346;28;20577;-57
2022/04/10 04:09:24;;;;;;;4.33;3.90;;;;;;;0.82;100.00;100355.06;4991014;28;20179;-57
2022/04/10 04:11:49;;;;;;;4.87;3.70;;;;;;;0.90;100.00;100350.75;4995845;28;20218;-61
2022/04/10 04:14:14;;;;;;;4.03;3.70;;;;;;;0.84;99.82;100361.78;4993506;28;20211;-58
2022/04/10 04:16:40;;;;;;;5.37;4.00;;;;;;;0.79;99.96;100361.00;4992155;28;20187;-58
2022/04/10 04:19:05;;;;;;;7.00;4.00;;;;;;;0.65;100.00;100363.66;4992735;28;20557;-58
2022/04/10 04:21:30;;;;;;;8.37;3.90;;;;;;;0.71;100.00;100370.34;4992969;28;20235;-57
2022/04/10 04:23:56;;;;;;;4.33;3.57;;;;;;;0.67;100.00;100371.25;4991246;28;20185;-57
2022/04/10 04:26:21;;;;;;;8.77;4.43;;;;;;;0.54;100.00;100384.00;4992166;28;20197;-56
2022/04/10 04:28:46;;;;;;;6.20;4.50;;;;;;;0.56;100.00;100376.41;4992256;28;20755;-57
2022/04/10 04:31:11;;;;;;;10.93;4.10;;;;;;;0.61;100.00;100383.09;4991071;28;20240;-57
2022/04/10 04:33:37;;;;;;;6.73;3.73;;;;;;;0.61;100.00;100384.81;4973420;28;20554;-59
2022/04/10 04:36:02;;;;;;;4.87;4.20;;;;;;;0.51;100.00;100398.38;4992007;28;20196;-60
2022/04/10 04:38:27;;;;;;;9.13;4.30;;;;;;;0.38;100.00;100397.66;4992176;28;20181;-58
2022/04/10 04:40:53;;;;;;;6.23;3.93;;;;;;;0.40;100.00;100401.84;4988534;28;20319;-58
2022/04/10 04:43:18;;;;;;;5.03;3.93;;;;;;;0.32;100.00;100401.91;5000240;28;20473;-58
2022/04/10 04:45:43;;;;;;;7.50;4.20;;;;;;;0.24;100.00;100411.25;4990407;28;20210;-58
2022/04/10 04:48:09;;;;;;;7.53;4.00;;;;;;;0.29;100.00;100409.50;4986077;28;20189;-58
2022/04/10 04:50:34;;;;;;;7.27;4.50;;;;;;;0.36;100.00;100407.78;4962515;28;20230;-58
2022/04/10 04:52:59;;;;;;;5.10;3.60;;;;;;;0.33;100.00;100415.38;4971158;28;20209;-58
2022/04/10 04:55:25;;;;;;;3.97;3.47;;;;;;;0.47;100.00;100413.59;4971308;28;20190;-58
2022/04/10 04:57:50;;;;;;;10.07;4.33;;;;;;;0.65;100.00;100416.84;4972308;28;20180;-59
2022/04/10 05:00:16;;;;;;;4.90;3.70;;;;;;;0.75;100.00;100418.44;4965823;28;20231;-59
2022/04/10 05:02:41;;;;;;;7.17;4.73;;;;;;;0.96;100.00;100406.41;5005070;28;20202;-57
2022/04/10 05:05:07;;;;;;;9.50;3.90;;;;;;;1.12;100.00;100414.72;4991139;28;20313;-57
2022/04/10 05:07:33;;;;;;;7.57;4.27;;;;;;;1.19;98.69;100418.88;5006820;28;20261;-58
2022/04/10 05:09:58;;;;;;;6.00;3.87;;;;;;;1.45;97.39;100431.25;4991125;28;20191;-58
2022/04/10 05:12:24;;;;;;;5.13;3.83;;;;;;;1.58;96.35;100428.56;4991659;28;20713;-58
2022/04/10 05:14:49;;;;;;;4.23;3.63;;;;;;;1.63;94.82;100434.41;4994971;28;20179;-58
2022/04/10 05:17:14;;;;;;;4.20;3.80;;;;;;;1.85;93.49;100436.66;4995393;28;20524;-58
2022/04/10 05:19:40;;;;;;;4.97;3.43;;;;;;;1.93;93.04;100439.94;4995407;28;20678;-58
2022/04/10 05:22:05;;;;;;;6.80;3.53;;;;;;;2.07;91.59;100450.75;4972999;28;20247;-58
2022/04/10 05:24:30;;;;;;;4.80;3.33;;;;;;;2.14;90.78;100458.28;4992002;28;20320;-57
2022/04/10 05:26:55;;;;;;;5.90;3.90;;;;;;;2.25;90.09;100453.88;4994999;28;20198;-57
2022/04/10 05:29:21;;;;;;;5.20;3.93;;;;;;;2.13;89.05;100462.50;4991577;28;20186;-57
2022/04/10 05:31:46;;;;;;;5.37;3.77;;;;;;;2.12;89.64;100463.34;5004631;28;20301;-58
2022/04/10 05:34:11;;;;;;;3.47;3.17;;;;;;;2.35;89.62;100457.97;5015060;28;20226;-59
2022/04/10 05:36:37;;;;;;;4.53;3.80;;;;;;;2.45;88.66;100473.06;5010844;28;20187;-61
2022/04/10 05:39:02;;;;;;;3.90;3.50;;;;;;;2.53;87.87;100472.09;5001515;28;20236;-59
2022/04/10 05:41:27;;;;;;;4.17;3.17;;;;;;;2.56;87.20;100468.66;4988814;28;20663;-58
2022/04/10 05:43:53;;;;;;;5.00;2.80;;;;;;;2.73;86.44;100470.94;5009966;28;20191;-59
2022/04/10 05:46:18;;;;;;;6.90;3.53;;;;;;;2.64;86.22;100471.09;5013295;28;20186;-58
2022/04/10 05:48:43;;;;;;;4.60;3.50;;;;;;;2.59;86.05;100468.59;5005047;28;20230;-59
2022/04/10 05:51:08;;;;;;;4.23;3.57;;;;;;;2.77;85.75;100475.09;4998538;28;20296;-58
2022/04/10 05:53:34;;;;;;;4.10;3.17;;;;;;;2.81;85.23;100478.44;5003763;28;20644;-58
2022/04/10 05:55:59;;;;;;;3.77;2.97;;;;;;;2.88;85.01;100478.31;4941424;28;20642;-59
2022/04/10 05:58:24;;;;;;;4.70;3.17;;;;;;;2.79;84.92;100480.16;5012957;28;20186;-59
2022/04/10 06:00:50;;;;;;;5.93;3.47;;;;;;;2.93;84.78;100474.84;4978281;28;20685;-58
2022/04/10 06:03:15;;;;;;;4.67;3.80;;;;;;;3.04;84.20;100478.88;5023133;28;20206;-58
2022/04/10 06:05:41;;;;;;;4.47;3.20;;;;;;;3.04;83.93;100475.53;5014256;28;20308;-58
2022/04/10 06:08:06;;;;;;;6.17;4.10;;;;;;;3.06;83.89;100476.31;5013979;28;20242;-59
2022/04/10 06:10:31;;;;;;;3.57;2.97;;;;;;;3.00;82.95;100478.97;5007664;28;20318;-59
2022/04/10 06:13:09;;;;;;;5.87;3.60;;;;;;;3.14;82.34;100482.13;5025179;28;20206;-60
2022/04/10 06:15:34;;;;;;;5.17;3.57;;;;;;;3.31;81.40;100486.91;5014165;28;20184;-59
2022/04/10 06:17:59;;;;;;;6.50;3.63;;;;;;;3.46;81.95;100495.09;5013847;28;20240;-59
2022/04/10 06:20:25;;;;;;;4.93;3.33;;;;;;;3.43;81.59;100496.00;5006963;28;20333;-58
2022/04/10 06:22:50;;;;;;;7.83;4.10;;;;;;;3.36;82.08;100494.44;5013781;28;20200;-59
2022/04/10 06:25:15;;;;;;;5.13;3.57;;;;;;;3.43;82.17;100498.53;4993673;28;20209;-58
2022/04/10 06:27:40;;;;;;;7.60;4.20;;;;;;;3.51;81.73;100500.94;4993628;28;20192;-59
2022/04/10 06:30:06;;;;;;;9.53;3.90;;;;;;;3.65;81.55;100505.78;4985740;28;20181;-59
2022/04/10 06:32:31;;;;;;;9.30;4.03;;;;;;;3.78;80.54;100508.91;5008567;28;20187;-59
2022/04/10 06:34:57;;;;;;;3.87;3.40;;;;;;;3.84;80.05;100508.78;5010158;28;20274;-60
2022/04/10 06:37:22;;;;;;;5.83;4.27;;;;;;;3.82;79.90;100510.50;4997203;28;20187;-60
2022/04/10 06:39:47;;;;;;;4.37;3.97;;;;;;;3.92;79.52;100512.03;5008840;28;20193;-60
2022/04/10 06:42:12;;;;;;;5.47;3.70;;;;;;;4.17;78.75;100512.34;5017443;28;20242;-59
2022/04/10 06:44:40;;;;;;;6.97;4.03;;;;;;;4.36;77.47;100522.13;5011589;28;20201;-59
2022/04/10 06:47:06;;;;;;;5.07;3.47;;;;;;;4.39;77.41;100524.63;5010503;28;20183;-59
2022/04/10 06:49:31;;;;;;;6.90;3.90;;;;;;;4.61;76.43;100529.22;5001914;28;20621;-61
2022/04/10 06:51:56;;;;;;;6.83;3.73;;;;;;;4.47;75.77;100524.44;5009606;28;20226;-60
2022/04/10 06:54:22;;;;;;;6.13;3.93;;;;;;;4.61;75.83;100526.66;4991915;28;20665;-60
2022/04/10 06:56:47;;;;;;;5.33;3.90;;;;;;;4.46;76.28;100525.31;4993627;28;20176;-62
2022/04/10 06:59:13;;;;;;;8.83;4.53;;;;;;;4.49;76.73;100532.88;4993096;28;20256;-61
2022/04/10 07:01:38;;;;;;;7.50;3.87;;;;;;;4.42;77.26;100536.44;4974733;28;20341;-61
2022/04/10 07:04:04;;;;;;;5.33;3.90;;;;;;;4.55;77.93;100540.38;4995415;28;20227;-58
2022/04/10 07:06:30;;;;;;;5.43;4.03;;;;;;;4.28;78.90;100534.19;5008638;28;20631;-61
2022/04/10 07:08:57;;;;;;;6.00;4.00;;;;;;;4.47;79.73;100527.00;4992089;28;20186;-60
2022/04/10 07:11:22;;;;;;;6.83;4.00;;;;;;;4.56;80.73;100531.88;4982651;28;20226;-60
2022/04/10 07:13:47;;;;;;;4.50;3.90;;;;;;;5.04;81.30;100529.94;4992130;28;20222;-63
2022/04/10 07:16:13;;;;;;;6.00;4.03;;;;;;;5.14;79.47;100529.63;4982081;28;20235;-60
2022/04/10 07:18:38;;;;;;;4.67;3.53;;;;;;;5.38;78.92;100534.16;4992648;28;20530;-61
2022/04/10 07:21:04;;;;;;;6.00;4.03;;;;;;;5.25;78.72;100536.19;4982590;28;20278;-60
2022/04/10 07:23:41;;;;;;;6.33;3.43;;;;;;;5.71;76.92;100534.16;4983344;28;20653;-60
2022/04/10 07:26:11;;;;;;;5.23;3.43;;;;;;;6.32;73.35;100530.75;4992108;28;20211;-60
2022/04/10 07:28:39;;;;;;;7.13;3.90;;;;;;;7.13;68.87;100532.44;4991824;28;20192;-60
2022/04/10 07:31:06;;;;;;;7.13;3.50;;;;;;;7.84;64.95;100524.88;4956451;28;20228;-59
2022/04/10 07:33:32;;;;;;;5.03;3.37;;;;;;;9.68;58.07;100525.28;4982723;28;20180;-59
2022/04/10 07:35:57;;;;;;;5.60;3.33;;;;;;;10.92;52.19;100531.63;4991052;28;20201;-59
2022/04/10 07:38:22;;;;;;;4.47;3.10;;;;;;;10.80;49.62;100526.19;4992976;28;20210;-63
2022/04/10 07:40:48;;;;;;;4.77;3.17;;;;;;;10.09;52.59;100523.50;4982277;28;20391;-61
2022/04/10 07:43:13;;;;;;;4.30;2.40;;;;;;;8.60;54.75;100539.19;4992097;28;20179;-58
2022/04/10 07:48:22;;;;;;;5.23;3.43;;;;;;;10.63;50.42;100532.13;4992724;28;20182;-60
2022/04/10 07:50:48;;;;;;;5.10;3.00;;;;;;;11.60;48.43;100534.19;4982394;28;20231;-61
2022/04/10 07:53:13;;;;;;;4.73;3.07;;;;;;;13.44;44.87;100537.94;4991216;28;20179;-60
2022/04/10 07:55:38;;;;;;;4.27;2.63;;;;;;;13.39;44.72;100543.38;4991536;28;20653;-60
2022/04/10 07:58:04;;;;;;;6.60;2.63;;;;;;;12.51;45.69;100550.94;4991177;28;20266;-60
2022/04/10 08:00:32;;;;;;;6.20;3.40;;;;;;;12.72;45.31;100560.03;4986007;28;20241;-60
2022/04/10 08:03:02;;;;;;;5.10;3.10;;;;;;;13.26;43.11;100552.72;5003891;28;20631;-67
2022/04/10 08:05:27;;;;;;;3.20;2.57;;;;;;;13.61;42.93;100560.19;4992388;28;20235;-60
2022/04/10 08:07:54;;;;;;;5.10;3.30;;;;;;;13.48;42.54;100562.66;4990880;28;20278;-59
2022/04/10 08:10:20;;;;;;;5.03;3.00;;;;;;;12.58;44.21;100578.06;4983464;28;20180;-61
2022/04/10 08:12:47;;;;;;;5.17;2.70;;;;;;;11.81;44.66;100564.94;5005172;28;20211;-59
2022/04/10 08:15:14;;;;;;;4.77;2.53;;;;;;;11.29;47.01;100576.16;4991906;28;20240;-61
2022/04/10 08:17:40;;;;;;;8.10;3.17;;;;;;;11.42;47.85;100584.94;4992432;28;20171;-60
2022/04/10 08:20:07;;;;;;;7.13;2.90;;;;;;;11.10;46.48;100579.66;4981248;28;20275;-60
2022/04/10 08:22:36;;;;;;;5.27;2.60;;;;;;;9.93;48.60;100585.03;5002491;28;20255;-62
2022/04/10 08:25:09;;;;;;;2.73;2.00;;;;;;;9.23;49.81;100590.53;4990842;28;20207;-57
2022/04/10 08:27:35;;;;;;;4.17;2.80;;;;;;;8.27;51.59;100598.50;4992538;28;20168;-58
2022/04/10 08:30:03;;;;;;;4.90;2.70;;;;;;;7.83;54.38;100597.50;4990790;28;20211;-59
2022/04/10 08:32:36;;;;;;;4.23;2.73;;;;;;;7.84;56.44;100590.63;4965066;28;20226;-57
2022/04/10 08:35:02;;;;;;;3.97;3.07;;;;;;;8.01;57.64;100601.13;4991617;28;20198;-57
2022/04/10 08:37:27;;;;;;;4.20;3.23;;;;;;;8.16;57.17;100594.63;4991050;28;20619;-59
2022/04/10 08:39:52;;;;;;;5.07;2.83;;;;;;;8.05;57.80;100607.81;4991927;28;20263;-59
2022/04/10 08:42:20;;;;;;;5.73;3.00;;;;;;;8.36;57.35;100598.16;4997321;28;20306;-59
2022/04/10 08:44:46;;;;;;;7.40;3.27;;;;;;;8.33;56.79;100606.78;4991545;28;20264;-57
2022/04/10 08:47:20;;;;;;;3.97;2.70;;;;;;;8.26;56.93;100607.09;4994230;28;20586;-60
2022/04/10 08:49:51;;;;;;;3.40;2.53;;;;;;;8.08;57.39;100604.31;4996064;28;20194;-58
2022/04/10 08:52:21;;;;;;;5.27;3.13;;;;;;;7.96;57.14;100599.63;4984933;28;20219;-58
2022/04/10 08:54:48;;;;;;;4.83;3.10;;;;;;;8.47;57.42;100608.03;4994118;28;20176;-58
2022/04/10 08:57:16;;;;;;;3.50;2.53;;;;;;;9.16;55.90;100615.59;4994434;28;20661;-58
2022/04/10 08:59:42;;;;;;;5.67;2.80;;;;;;;9.82;52.76;100611.19;4994459;28;20180;-58
2022/04/10 09:02:10;;;;;;;4.03;2.80;;;;;;;9.56;51.99;100614.88;4986830;28;20241;-60
2022/04/10 09:04:35;;;;;;;9.60;3.70;;;;;;;9.23;53.44;100613.66;4994883;28;20725;-59
2022/04/10 09:07:04;;;;;;;5.97;2.67;;;;;;;8.90;53.88;100614.09;4995851;28;20183;-58
2022/04/10 09:09:30;;;;;;;4.83;2.90;;;;;;;8.69;55.59;100611.44;4994376;28;20178;-58
2022/04/10 09:11:56;;;;;;;4.03;2.80;;;;;;;8.45;57.29;100620.06;4986972;28;20337;-58
2022/04/10 09:14:26;;;;;;;3.43;2.20;;;;;;;8.38;57.27;100616.88;4993616;28;20179;-59
2022/04/10 09:17:16;;;;;;;4.13;2.63;;;;;;;8.02;58.01;100617.31;4995668;28;20186;-58
2022/04/10 09:19:50;;;;;;;5.47;3.27;;;;;;;8.36;58.46;100622.06;4994004;28;20180;-58
2022/04/10 09:22:35;;;;;;;6.63;2.60;;;;;;;8.37;58.03;100628.88;4983191;28;20226;-58
2022/04/10 09:25:15;;;;;;;5.30;2.63;;;;;;;8.76;56.43;100621.47;4973884;28;20220;-58
2022/04/10 09:27:43;;;;;;;5.63;2.93;;;;;;;9.64;53.69;100612.84;4976386;28;20176;-58
2022/04/10 09:30:12;;;;;;;5.90;2.80;;;;;;;10.35;51.95;100612.28;4964282;28;20204;-60
2022/04/10 09:32:45;;;;;;;5.17;2.77;;;;;;;12.09;48.06;100615.91;4974716;28;20707;-62
2022/04/10 09:35:13;;;;;;;4.40;2.23;;;;;;;13.36;43.70;100611.53;4975491;28;20541;-61
2022/04/10 09:37:45;;;;;;;6.83;2.97;;;;;;;16.25;37.53;100597.53;4975584;28;20239;-58
2022/04/10 09:40:39;;;;;;;5.83;2.57;;;;;;;18.23;33.19;100602.88;4964291;28;20172;-60
2022/04/10 09:43:11;;;;;;;5.40;2.60;;;;;;;20.16;30.35;100596.63;4965780;28;20188;-60
2022/04/10 09:45:40;;;;;;;2.73;2.13;;;;;;;18.95;30.91;100596.28;4975236;28;20210;-60
2022/04/10 09:48:23;;;;;;;3.97;2.60;;;;;;;16.33;34.63;100609.97;4977723;28;20179;-59
2022/04/10 09:50:52;;;;;;;4.40;2.13;;;;;;;14.43;38.00;100607.75;4980425;28;20227;-59
2022/04/10 09:53:17;;;;;;;4.30;2.33;;;;;;;13.38;40.24;100620.06;4983454;28;20172;-58
2022/04/10 09:55:44;;;;;;;5.97;3.00;;;;;;;12.07;43.73;100611.75;4995086;28;20182;-60
2022/04/10 09:58:13;;;;;;;3.97;2.57;;;;;;;11.85;44.40;100609.44;4992140;28;20179;-60
2022/04/10 10:00:46;;;;;;;9.70;2.90;;;;;;;12.56;43.88;100593.59;4986472;28;20334;-60
2022/04/10 10:03:12;;;;;;;4.70;2.93;;;;;;;13.17;41.77;100600.59;5003931;28;20171;-59
2022/04/10 10:05:38;;;;;;;5.00;2.40;;;;;;;12.70;42.02;100602.34;4993295;28;20314;-62
2022/04/10 10:08:06;;;;;;;3.90;2.67;;;;;;;12.74;42.82;100596.94;4993058;28;20183;-60
2022/04/10 10:10:36;;;;;;;5.23;2.60;;;;;;;12.68;41.33;100591.28;4988145;28;20249;-59
2022/04/10 10:13:06;;;;;;;5.40;2.50;;;;;;;13.48;38.96;100604.84;5004681;28;20258;-60
2022/04/10 10:15:32;;;;;;;4.87;2.67;;;;;;;14.60;36.52;100587.72;4994519;28;20186;-58
2022/04/10 10:18:01;;;;;;;5.10;2.10;;;;;;;15.25;36.72;100592.19;4992280;28;20673;-61
2022/04/10 10:20:27;;;;;;;5.50;2.77;;;;;;;14.41;36.57;100590.66;4969838;28;20642;-59
2022/04/10 10:22:53;;;;;;;5.17;2.20;;;;;;;13.49;37.86;100595.34;5005568;28;20184;-60
2022/04/10 10:25:35;;;;;;;2.93;2.33;;;;;;;15.15;36.29;100585.94;4992430;28;20361;-59
2022/04/10 10:28:37;;;;;;;5.67;2.40;;;;;;;15.65;33.19;100580.88;4992895;28;20179;-59
2022/04/10 10:31:18;;;;;;;4.90;2.60;;;;;;;14.07;36.84;100577.25;4977800;28;20244;-60
2022/04/10 10:33:54;;;;;;;4.80;2.27;;;;;;;13.84;37.21;100590.66;4993008;28;20279;-59
2022/04/10 10:36:22;;;;;;;6.23;3.30;;;;;;;13.12;37.41;100580.19;4992919;28;20274;-62
2022/04/10 10:38:52;;;;;;;6.43;2.67;;;;;;;11.05;40.99;100580.75;4992767;28;20175;-62
2022/04/10 10:41:18;;;;;;;5.47;3.80;;;;;;;10.18;44.39;100577.91;4976014;28;20261;-60
2022/04/10 10:43:45;;;;;;;5.93;3.70;;;;;;;10.52;45.38;100580.69;4992860;28;20188;-60
2022/04/10 10:46:32;;;;;;;6.17;3.50;;;;;;;10.96;44.70;100571.75;4992144;28;20207;-61
2022/04/10 10:49:20;;;;;;;7.03;3.40;;;;;;;11.17;43.65;100563.91;4994066;28;20666;-61
2022/04/10 10:51:50;;;;;;;6.77;3.47;;;;;;;11.28;44.29;100565.00;4982783;28;20243;-61
2022/04/10 10:54:24;;;;;;;3.83;3.33;;;;;;;11.11;44.44;100570.16;5006524;28;20236;-60
2022/04/10 10:56:50;;;;;;;5.20;2.83;;;;;;;11.05;45.57;100570.47;4992298;28;20191;-60
2022/04/10 10:59:21;;;;;;;3.97;3.13;;;;;;;11.16;43.65;100564.78;4992414;28;20179;-61
2022/04/10 11:02:11;;;;;;;7.73;3.83;;;;;;;10.61;44.53;100559.66;4975419;28;20234;-61
2022/04/10 11:04:47;;;;;;;4.50;3.40;;;;;;;10.84;44.76;100559.47;4993149;28;20230;-60
2022/04/10 11:07:19;;;;;;;5.70;3.57;;;;;;;11.18;45.35;100563.81;4992403;28;20201;-61
2022/04/10 11:10:00;;;;;;;5.80;3.07;;;;;;;11.34;41.90;100565.59;4993685;28;20176;-61
2022/04/10 11:12:33;;;;;;;4.80;2.97;;;;;;;10.71;40.86;100562.63;4998587;28;20410;-60
2022/04/10 11:15:22;;;;;;;5.73;2.87;;;;;;;10.41;43.55;100555.47;4991604;28;20191;-60
2022/04/10 11:17:49;;;;;;;3.97;3.40;;;;;;;10.32;45.14;100561.84;4981417;28;20211;-62
2022/04/10 11:20:17;;;;;;;4.77;3.37;;;;;;;10.43;45.75;100556.22;4984882;28;20183;-60
2022/04/10 11:22:48;;;;;;;4.60;2.90;;;;;;;9.91;45.01;100566.28;5006501;28;20278;-58
2022/04/10 11:25:17;;;;;;;6.20;3.63;;;;;;;10.16;46.47;100556.56;4991211;28;20305;-62
2022/04/10 11:27:45;;;;;;;4.37;3.33;;;;;;;10.01;47.12;100552.94;4991780;28;20184;-60
2022/04/10 11:30:12;;;;;;;6.47;3.20;;;;;;;9.76;48.04;100555.78;4960491;28;20175;-59
2022/04/10 11:32:52;;;;;;;6.27;3.83;;;;;;;9.87;49.06;100555.28;4977526;28;20183;-61